Time;durP1;ratioP1;P1;durP2;ratioP2;P2;SDS_P1;SDS_P2;PMS_P1;PMS_P2;Temp;Humidity;BMP_temperature;BMP_pressure;BME280_temperature;BME280_humidity;BME280_pressure;Samples;Min_cycle;Max_cycle;Signal;HPM_P1;HPM_P2
2023/07/01 00:01:41;;;;;;;57.07;2.27;;;;;;;;;;5030966;28;20964;-67
2023/07/01 00:04:08;;;;;;;56.80;2.00;;;;;;;;;;5030930;28;20456;-67
2023/07/01 00:06:35;;;;;;;56.73;2.00;;;;;;;;;;5030877;28;20469;-69
2023/07/01 00:09:02;;;;;;;56.47;2.13;;;;;;;;;;5031035;28;20461;-67
2023/07/01 00:11:29;;;;;;;56.87;2.30;;;;;;;;;;5031437;28;20460;-67
2023/07/01 00:13:57;;;;;;;56.57;2.20;;;;;;;;;;5031126;28;20554;-67
2023/07/01 00:16:25;;;;;;;56.87;2.40;;;;;;;;;;5030867;28;20495;-67
2023/07/01 00:18:52;;;;;;;56.83;2.30;;;;;;;;;;5030853;28;20453;-66
2023/07/01 00:21:19;;;;;;;57.50;3.47;;;;;;;;;;5030939;28;20445;-67
2023/07/01 00:23:46;;;;;;;56.83;2.23;;;;;;;;;;5031308;28;20452;-67
2023/07/01 00:26:13;;;;;;;56.73;2.20;;;;;;;;;;5030831;28;20465;-67
2023/07/01 00:28:40;;;;;;;56.87;2.20;;;;;;;;;;5031160;28;20441;-67
2023/07/01 00:31:08;;;;;;;56.67;2.50;;;;;;;;;;5031039;28;20456;-67
2023/07/01 00:33:35;;;;;;;56.70;2.10;;;;;;;;;;5030191;28;20476;-67
2023/07/01 00:36:02;;;;;;;57.00;2.23;;;;;;;;;;5030456;28;20750;-67
2023/07/01 00:38:29;;;;;;;56.97;2.27;;;;;;;;;;5031006;28;20445;-67
2023/07/01 00:40:56;;;;;;;56.77;2.10;;;;;;;;;;5031087;28;20449;-67
2023/07/01 00:43:23;;;;;;;57.00;2.20;;;;;;;;;;5030979;28;20452;-68
2023/07/01 00:45:51;;;;;;;57.40;2.40;;;;;;;;;;5030572;28;20444;-67
2023/07/01 00:48:24;;;;;;;56.83;2.10;;;;;;;;;;5030895;28;20460;-67
2023/07/01 00:50:51;;;;;;;56.80;2.43;;;;;;;;;;5031076;28;20557;-67
2023/07/01 00:53:18;;;;;;;56.77;2.17;;;;;;;;;;5030582;28;20503;-67
2023/07/01 00:55:45;;;;;;;56.90;2.17;;;;;;;;;;5030435;28;20449;-67
2023/07/01 00:58:12;;;;;;;56.77;2.27;;;;;;;;;;5031863;28;20453;-67
2023/07/01 01:00:39;;;;;;;56.97;2.50;;;;;;;;;;5034967;28;20453;-67
2023/07/01 01:03:14;;;;;;;56.90;2.20;;;;;;;;;;5034176;28;20444;-67
2023/07/01 01:05:49;;;;;;;56.83;2.10;;;;;;;;;;5034238;28;20483;-67
2023/07/01 01:08:18;;;;;;;56.80;2.13;;;;;;;;;;5034685;28;20837;-67
2023/07/01 01:10:48;;;;;;;57.23;2.73;;;;;;;;;;5034414;28;20456;-67
2023/07/01 01:13:16;;;;;;;57.30;2.60;;;;;;;;;;5034316;28;20519;-67
2023/07/01 01:15:43;;;;;;;57.27;2.60;;;;;;;;;;5033832;28;20949;-67
2023/07/01 01:18:12;;;;;;;57.13;2.70;;;;;;;;;;5034295;28;20449;-67
2023/07/01 01:20:41;;;;;;;57.17;2.83;;;;;;;;;;5034300;28;20991;-67
2023/07/01 01:23:13;;;;;;;57.17;2.40;;;;;;;;;;5034320;28;20816;-66
2023/07/01 01:25:44;;;;;;;56.87;2.17;;;;;;;;;;5033918;28;20457;-67
2023/07/01 01:28:13;;;;;;;57.10;2.30;;;;;;;;;;5034611;28;20476;-68
2023/07/01 01:30:40;;;;;;;57.07;2.50;;;;;;;;;;5034287;28;20453;-68
2023/07/01 01:33:07;;;;;;;57.13;2.40;;;;;;;;;;5033547;28;20453;-68
2023/07/01 01:35:34;;;;;;;57.07;2.27;;;;;;;;;;5034005;28;20460;-68
2023/07/01 01:38:04;;;;;;;57.30;2.47;;;;;;;;;;5034110;28;20445;-67
2023/07/01 01:40:33;;;;;;;57.77;2.83;;;;;;;;;;5034014;28;20449;-67
2023/07/01 01:43:03;;;;;;;56.97;2.53;;;;;;;;;;5034240;28;20798;-67
2023/07/01 01:45:32;;;;;;;57.20;2.70;;;;;;;;;;5032844;28;20453;-67
2023/07/01 01:47:59;;;;;;;57.47;2.40;;;;;;;;;;5033167;28;20459;-67
2023/07/01 01:50:27;;;;;;;57.30;2.40;;;;;;;;;;5031956;28;20449;-68
2023/07/01 01:52:54;;;;;;;57.33;2.40;;;;;;;;;;5033955;28;20449;-67
2023/07/01 01:55:22;;;;;;;57.07;2.60;;;;;;;;;;5033537;28;20495;-67
2023/07/01 01:57:50;;;;;;;57.10;2.50;;;;;;;;;;5033640;28;20468;-67
2023/07/01 02:00:17;;;;;;;57.40;2.83;;;;;;;;;;5033510;28;20452;-67
2023/07/01 02:02:45;;;;;;;57.10;2.60;;;;;;;;;;5033128;28;20449;-68
2023/07/01 02:05:12;;;;;;;56.87;2.30;;;;;;;;;;5033127;28;20952;-67
2023/07/01 02:07:40;;;;;;;57.40;2.63;;;;;;;;;;5033382;28;20473;-67
2023/07/01 02:10:07;;;;;;;57.30;2.43;;;;;;;;;;5032354;28;20461;-67
2023/07/01 02:12:34;;;;;;;57.17;2.30;;;;;;;;;;5033314;28;20976;-67
2023/07/01 02:15:01;;;;;;;57.17;2.27;;;;;;;;;;5032762;28;20477;-68
2023/07/01 02:17:28;;;;;;;57.10;2.60;;;;;;;;;;5033373;28;20469;-68
2023/07/01 02:19:57;;;;;;;57.37;2.63;;;;;;;;;;5033193;28;20453;-68
2023/07/01 02:22:24;;;;;;;57.20;2.57;;;;;;;;;;5033292;28;20472;-67
2023/07/01 02:24:51;;;;;;;57.40;2.83;;;;;;;;;;5033100;28;20449;-67
2023/07/01 02:27:19;;;;;;;57.13;2.37;;;;;;;;;;5032613;28;20476;-67
2023/07/01 02:29:47;;;;;;;57.10;2.20;;;;;;;;;;5032888;28;20457;-67
2023/07/01 02:32:14;;;;;;;56.83;2.10;;;;;;;;;;5033196;28;20448;-67
2023/07/01 02:34:41;;;;;;;57.30;2.30;;;;;;;;;;5032766;28;21011;-67
2023/07/01 02:37:10;;;;;;;57.13;2.30;;;;;;;;;;5032595;28;20465;-68
2023/07/01 02:39:37;;;;;;;57.13;2.30;;;;;;;;;;5032749;28;20449;-68
2023/07/01 02:42:05;;;;;;;57.20;2.37;;;;;;;;;;5032698;28;20449;-68
2023/07/01 02:44:32;;;;;;;57.17;2.40;;;;;;;;;;5032897;28;20455;-68
2023/07/01 02:46:59;;;;;;;57.50;2.53;;;;;;;;;;5032243;28;20848;-68
2023/07/01 02:49:26;;;;;;;57.13;2.50;;;;;;;;;;5032723;28;20460;-69
2023/07/01 02:51:53;;;;;;;58.33;2.60;;;;;;;;;;5032485;28;20542;-69
2023/07/01 02:54:22;;;;;;;57.27;2.60;;;;;;;;;;5032475;28;20488;-68
2023/07/01 02:56:49;;;;;;;57.10;2.30;;;;;;;;;;5032086;28;20477;-68
2023/07/01 02:59:16;;;;;;;57.23;2.40;;;;;;;;;;5032454;28;20953;-69
2023/07/01 03:01:44;;;;;;;57.30;2.47;;;;;;;;;;5032597;28;20461;-68
2023/07/01 03:04:11;;;;;;;58.17;2.60;;;;;;;;;;5032406;28;20451;-69
2023/07/01 03:06:38;;;;;;;57.27;2.60;;;;;;;;;;5031952;28;20469;-68
2023/07/01 03:09:07;;;;;;;57.30;2.47;;;;;;;;;;5032448;28;20857;-69
2023/07/01 03:11:36;;;;;;;57.20;2.60;;;;;;;;;;5032527;28;20453;-68
2023/07/01 03:14:03;;;;;;;57.50;2.67;;;;;;;;;;5032367;28;20527;-68
2023/07/01 03:16:30;;;;;;;57.30;2.47;;;;;;;;;;5031714;28;20469;-68
2023/07/01 03:18:58;;;;;;;57.03;2.47;;;;;;;;;;5032238;28;20446;-68
2023/07/01 03:21:25;;;;;;;57.30;2.80;;;;;;;;;;5032068;28;20449;-68
2023/07/01 03:23:52;;;;;;;57.37;3.00;;;;;;;;;;5032558;28;20449;-69
2023/07/01 03:26:19;;;;;;;57.30;2.30;;;;;;;;;;5031516;28;20477;-68
2023/07/01 03:28:47;;;;;;;57.13;2.40;;;;;;;;;;5032181;28;20548;-68
2023/07/01 03:31:14;;;;;;;57.17;2.50;;;;;;;;;;5031886;28;20449;-68
2023/07/01 03:33:41;;;;;;;57.37;2.53;;;;;;;;;;5031850;28;20524;-68
2023/07/01 03:36:09;;;;;;;57.50;2.60;;;;;;;;;;5031272;28;20466;-68
2023/07/01 03:38:36;;;;;;;57.17;2.70;;;;;;;;;;5031840;28;20457;-68
2023/07/01 03:41:03;;;;;;;57.10;2.33;;;;;;;;;;5032121;28;20453;-68
2023/07/01 03:43:30;;;;;;;57.30;2.57;;;;;;;;;;5031339;28;20880;-68
2023/07/01 03:45:58;;;;;;;57.17;2.57;;;;;;;;;;5030986;28;20481;-68
2023/07/01 03:48:25;;;;;;;57.33;2.40;;;;;;;;;;5031523;28;20449;-68
2023/07/01 03:50:53;;;;;;;57.17;2.40;;;;;;;;;;5031245;28;20445;-68
2023/07/01 03:53:20;;;;;;;57.47;2.70;;;;;;;;;;5031602;28;20461;-68
2023/07/01 03:55:47;;;;;;;57.90;2.60;;;;;;;;;;5031016;28;20515;-68
2023/07/01 03:58:21;;;;;;;57.07;2.40;;;;;;;;;;5031409;28;20501;-68
2023/07/01 04:00:48;;;;;;;56.97;2.20;;;;;;;;;;5031391;28;20960;-68
2023/07/01 04:03:17;;;;;;;57.20;2.50;;;;;;;;;;5031263;28;20952;-69
2023/07/01 04:05:44;;;;;;;57.17;2.40;;;;;;;;;;5031437;28;20455;-68
2023/07/01 04:08:11;;;;;;;58.27;3.73;;;;;;;;;;5031154;28;20468;-68
2023/07/01 04:10:38;;;;;;;56.97;2.50;;;;;;;;;;5031355;28;20453;-68
2023/07/01 04:13:05;;;;;;;57.13;2.50;;;;;;;;;;5031220;28;20453;-68
2023/07/01 04:15:33;;;;;;;57.40;2.60;;;;;;;;;;5030540;28;20591;-68
2023/07/01 04:18:00;;;;;;;56.93;2.30;;;;;;;;;;5030635;28;20452;-68
2023/07/01 04:20:28;;;;;;;57.27;2.70;;;;;;;;;;5030713;28;20456;-68
2023/07/01 04:22:55;;;;;;;57.50;2.70;;;;;;;;;;5030988;28;20449;-68
2023/07/01 04:25:22;;;;;;;57.03;2.40;;;;;;;;;;5030696;28;20953;-68
2023/07/01 04:27:49;;;;;;;56.97;2.50;;;;;;;;;;5030982;28;20571;-68
2023/07/01 04:30:16;;;;;;;57.40;2.50;;;;;;;;;;5030921;28;20457;-68
2023/07/01 04:32:44;;;;;;;56.80;2.20;;;;;;;;;;5031551;28;20452;-69
2023/07/01 04:35:11;;;;;;;56.90;2.50;;;;;;;;;;5034714;28;20484;-68
2023/07/01 04:37:39;;;;;;;57.07;2.43;;;;;;;;;;5035066;28;20530;-68
2023/07/01 04:40:07;;;;;;;57.10;2.20;;;;;;;;;;5035332;28;20453;-68
2023/07/01 04:42:34;;;;;;;57.10;3.00;;;;;;;;;;5035015;28;20445;-69
2023/07/01 04:45:01;;;;;;;57.03;2.60;;;;;;;;;;5034652;28;20449;-69
2023/07/01 04:47:29;;;;;;;56.67;2.20;;;;;;;;;;5034971;28;20810;-68
2023/07/01 04:49:56;;;;;;;56.87;2.30;;;;;;;;;;5035055;28;20445;-68
2023/07/01 04:52:23;;;;;;;57.20;2.50;;;;;;;;;;5034881;28;20448;-68
2023/07/01 04:54:52;;;;;;;56.87;2.67;;;;;;;;;;5034696;28;20480;-68
2023/07/01 04:57:19;;;;;;;56.93;2.70;;;;;;;;;;5034258;28;20477;-68
2023/07/01 04:59:46;;;;;;;56.83;2.20;;;;;;;;;;5034645;28;20460;-68
2023/07/01 05:02:13;;;;;;;57.57;3.47;;;;;;;;;;5035039;28;20451;-68
2023/07/01 05:04:40;;;;;;;56.77;2.07;;;;;;;;;;5034695;28;20770;-68
2023/07/01 05:07:07;;;;;;;56.63;2.40;;;;;;;;;;5034281;28;20508;-68
2023/07/01 05:09:34;;;;;;;56.77;2.10;;;;;;;;;;5034387;28;20457;-68
2023/07/01 05:12:03;;;;;;;56.63;2.30;;;;;;;;;;5034464;28;20449;-68
2023/07/01 05:14:30;;;;;;;56.70;2.17;;;;;;;;;;5034611;28;20456;-68
2023/07/01 05:16:57;;;;;;;56.67;2.80;;;;;;;;;;5034201;28;20469;-68
2023/07/01 05:19:24;;;;;;;56.90;2.20;;;;;;;;;;5034421;28;20453;-68
2023/07/01 05:21:52;;;;;;;56.67;2.40;;;;;;;;;;5034375;28;20445;-68
2023/07/01 05:24:19;;;;;;;56.67;2.30;;;;;;;;;;5034280;28;20449;-68
2023/07/01 05:26:47;;;;;;;56.60;2.30;;;;;;;;;;5033683;28;20996;-68
2023/07/01 05:29:15;;;;;;;56.80;2.50;;;;;;;;;;5034219;28;20460;-69
2023/07/01 05:31:43;;;;;;;56.70;2.40;;;;;;;;;;5034033;28;21020;-66
2023/07/01 05:34:10;;;;;;;56.60;2.50;;;;;;;;;;5034101;28;20472;-66
2023/07/01 05:36:37;;;;;;;56.73;2.13;;;;;;;;;;5033573;28;20496;-66
2023/07/01 05:39:04;;;;;;;56.77;2.10;;;;;;;;;;5033814;28;20460;-68
2023/07/01 05:41:32;;;;;;;56.93;2.40;;;;;;;;;;5034100;28;20455;-68
2023/07/01 05:43:59;;;;;;;57.00;2.43;;;;;;;;;;5032668;28;20449;-66
2023/07/01 05:46:27;;;;;;;56.47;2.20;;;;;;;;;;5032317;28;20462;-66
2023/07/01 05:48:54;;;;;;;56.77;2.40;;;;;;;;;;5033034;28;20449;-66
2023/07/01 05:51:21;;;;;;;56.90;2.50;;;;;;;;;;5033699;28;20449;-68
2023/07/01 05:53:49;;;;;;;56.60;2.10;;;;;;;;;;5033646;28;20449;-68
2023/07/01 05:56:16;;;;;;;56.73;2.30;;;;;;;;;;5033135;28;21024;-68
2023/07/01 05:58:43;;;;;;;56.83;2.20;;;;;;;;;;5033927;28;20453;-68
2023/07/01 06:01:10;;;;;;;56.37;2.07;;;;;;;;;;5033704;28;20445;-69
2023/07/01 06:03:39;;;;;;;56.87;2.20;;;;;;;;;;5033655;28;20452;-68
2023/07/01 06:06:06;;;;;;;56.67;2.43;;;;;;;;;;5033091;28;20465;-68
2023/07/01 06:08:33;;;;;;;56.77;2.40;;;;;;;;;;5033569;28;20507;-66
2023/07/01 06:11:00;;;;;;;56.47;2.40;;;;;;;;;;5033589;28;20449;-66
2023/07/01 06:13:27;;;;;;;56.67;2.30;;;;;;;;;;5033314;28;20460;-67
2023/07/01 06:15:54;;;;;;;56.70;2.00;;;;;;;;;;5032926;28;20583;-66
2023/07/01 06:18:21;;;;;;;56.60;2.00;;;;;;;;;;5033313;28;20456;-66
2023/07/01 06:20:50;;;;;;;56.70;2.20;;;;;;;;;;5033086;28;20456;-66
2023/07/01 06:23:17;;;;;;;56.90;2.20;;;;;;;;;;5033550;28;20476;-66
2023/07/01 06:25:44;;;;;;;56.63;1.90;;;;;;;;;;5032654;28;20503;-66
2023/07/01 06:28:11;;;;;;;56.67;2.30;;;;;;;;;;5033133;28;20453;-67
2023/07/01 06:30:39;;;;;;;56.47;2.10;;;;;;;;;;5032942;28;20961;-66
2023/07/01 06:33:06;;;;;;;56.57;2.57;;;;;;;;;;5033004;28;20456;-67
2023/07/01 06:35:34;;;;;;;56.80;2.30;;;;;;;;;;5032496;28;20492;-66
2023/07/01 06:38:02;;;;;;;56.57;2.30;;;;;;;;;;5033030;28;20537;-66
2023/07/01 06:40:29;;;;;;;56.90;2.20;;;;;;;;;;5032752;28;20464;-67
2023/07/01 06:42:57;;;;;;;56.50;2.00;;;;;;;;;;5032774;28;20825;-66
2023/07/01 06:45:24;;;;;;;56.80;2.47;;;;;;;;;;5032420;28;20452;-66
2023/07/01 06:47:51;;;;;;;56.67;2.23;;;;;;;;;;5032495;28;20476;-67
2023/07/01 06:50:18;;;;;;;56.47;2.00;;;;;;;;;;5032817;28;20937;-67
2023/07/01 06:52:45;;;;;;;57.00;2.57;;;;;;;;;;5032700;28;20449;-67
2023/07/01 06:55:14;;;;;;;57.40;3.03;;;;;;;;;;5032060;28;20477;-66
2023/07/01 06:57:42;;;;;;;56.97;2.30;;;;;;;;;;5032245;28;20465;-66
2023/07/01 07:00:10;;;;;;;56.77;2.10;;;;;;;;;;5032496;28;20452;-66
2023/07/01 07:02:37;;;;;;;56.77;2.10;;;;;;;;;;5032639;28;20449;-67
2023/07/01 07:05:05;;;;;;;58.27;3.07;;;;;;;;;;5032315;28;20590;-67
2023/07/01 07:07:32;;;;;;;56.57;2.00;;;;;;;;;;5032267;28;20480;-67
2023/07/01 07:09:59;;;;;;;56.80;1.97;;;;;;;;;;5032110;28;20461;-67
2023/07/01 07:12:27;;;;;;;56.60;2.00;;;;;;;;;;5032699;28;20776;-67
2023/07/01 07:14:54;;;;;;;56.47;2.20;;;;;;;;;;5031986;28;20544;-68
2023/07/01 07:17:21;;;;;;;56.63;2.20;;;;;;;;;;5032024;28;20475;-67
2023/07/01 07:19:48;;;;;;;56.40;1.97;;;;;;;;;;5032226;28;20450;-67
2023/07/01 07:22:16;;;;;;;56.27;1.80;;;;;;;;;;5032055;28;20456;-67
2023/07/01 07:24:43;;;;;;;56.60;2.00;;;;;;;;;;5031855;28;20453;-67
2023/07/01 07:27:10;;;;;;;56.43;1.80;;;;;;;;;;5031555;28;20476;-67
2023/07/01 07:29:39;;;;;;;57.57;2.37;;;;;;;;;;5031721;28;20445;-67
2023/07/01 07:32:06;;;;;;;56.67;2.00;;;;;;;;;;5031839;28;20457;-67
2023/07/01 07:34:33;;;;;;;56.47;1.90;;;;;;;;;;5032016;28;20449;-67
2023/07/01 07:37:01;;;;;;;56.50;1.90;;;;;;;;;;5031319;28;20497;-66
2023/07/01 07:39:28;;;;;;;56.70;2.57;;;;;;;;;;5031760;28;20908;-67
2023/07/01 07:41:55;;;;;;;56.70;2.70;;;;;;;;;;5031681;28;20828;-67
2023/07/01 07:44:22;;;;;;;56.60;2.10;;;;;;;;;;5031638;28;20444;-68
2023/07/01 07:46:51;;;;;;;56.60;2.27;;;;;;;;;;5031519;28;20826;-68
2023/07/01 07:49:18;;;;;;;56.47;2.20;;;;;;;;;;5031776;28;20449;-68
2023/07/01 07:51:45;;;;;;;56.53;2.00;;;;;;;;;;5031660;28;20456;-68
2023/07/01 07:54:12;;;;;;;56.60;1.90;;;;;;;;;;5031515;28;20449;-68
2023/07/01 07:56:39;;;;;;;56.50;1.90;;;;;;;;;;5030969;28;21001;-69
2023/07/01 07:59:07;;;;;;;56.90;2.30;;;;;;;;;;5031695;28;20452;-68
2023/07/01 08:01:34;;;;;;;56.67;2.40;;;;;;;;;;5031619;28;20557;-68
2023/07/01 08:04:02;;;;;;;57.60;2.10;;;;;;;;;;5031357;28;20956;-68
2023/07/01 08:06:29;;;;;;;57.03;2.40;;;;;;;;;;5031022;28;20848;-68
2023/07/01 08:08:57;;;;;;;56.27;2.17;;;;;;;;;;5030552;28;20461;-68
2023/07/01 08:11:24;;;;;;;56.40;1.80;;;;;;;;;;5031145;28;20453;-68
2023/07/01 08:13:51;;;;;;;56.47;1.90;;;;;;;;;;5031221;28;20457;-68
2023/07/01 08:16:18;;;;;;;56.37;2.10;;;;;;;;;;5030919;28;20536;-68
2023/07/01 08:18:45;;;;;;;56.97;2.43;;;;;;;;;;5031278;28;20453;-68
2023/07/01 08:21:13;;;;;;;57.43;3.07;;;;;;;;;;5031192;28;20456;-68
2023/07/01 08:23:41;;;;;;;56.37;2.00;;;;;;;;;;5030927;28;20457;-68
2023/07/01 08:26:08;;;;;;;56.53;2.07;;;;;;;;;;5030615;28;20974;-68
2023/07/01 08:28:35;;;;;;;56.37;2.00;;;;;;;;;;5031176;28;20445;-68
2023/07/01 08:31:04;;;;;;;56.77;2.00;;;;;;;;;;5031054;28;20453;-68
2023/07/01 08:33:31;;;;;;;56.07;2.00;;;;;;;;;;5031210;28;20484;-68
2023/07/01 08:35:58;;;;;;;56.20;2.03;;;;;;;;;;5030573;28;21085;-68
2023/07/01 08:38:28;;;;;;;56.37;2.00;;;;;;;;;;5030963;28;20445;-68
2023/07/01 08:40:57;;;;;;;56.07;1.77;;;;;;;;;;5031478;28;20512;-68
2023/07/01 08:43:25;;;;;;;56.37;2.00;;;;;;;;;;5031125;28;20459;-68
2023/07/01 08:45:53;;;;;;;56.67;1.90;;;;;;;;;;5030690;28;20507;-68
2023/07/01 08:48:22;;;;;;;56.80;2.43;;;;;;;;;;5030919;28;20445;-68
2023/07/01 08:50:53;;;;;;;56.47;2.10;;;;;;;;;;5031136;28;20484;-68
2023/07/01 08:53:21;;;;;;;56.00;1.87;;;;;;;;;;5030894;28;20779;-68
2023/07/01 08:55:49;;;;;;;56.27;1.70;;;;;;;;;;5030605;28;20481;-68
2023/07/01 08:58:16;;;;;;;56.70;2.27;;;;;;;;;;5030860;28;20453;-68
2023/07/01 09:00:44;;;;;;;56.47;2.00;;;;;;;;;;5030905;28;20445;-69
2023/07/01 09:03:12;;;;;;;56.17;1.90;;;;;;;;;;5030793;28;20555;-68
2023/07/01 09:05:39;;;;;;;56.40;2.00;;;;;;;;;;5030544;28;20446;-68
2023/07/01 09:08:07;;;;;;;56.90;2.30;;;;;;;;;;5030846;28;20456;-68
2023/07/01 09:10:34;;;;;;;56.90;2.27;;;;;;;;;;5030800;28;20460;-68
2023/07/01 09:13:11;;;;;;;56.40;1.80;;;;;;;;;;5030838;28;20457;-68
2023/07/01 09:15:48;;;;;;;56.07;1.80;;;;;;;;;;5030322;28;20457;-68
2023/07/01 09:18:22;;;;;;;56.47;1.80;;;;;;;;;;5030969;28;20452;-68
2023/07/01 09:20:50;;;;;;;56.40;1.80;;;;;;;;;;5034339;28;20448;-68
2023/07/01 09:23:27;;;;;;;56.07;2.30;;;;;;;;;;5034447;28;20453;-68
2023/07/01 09:25:54;;;;;;;56.33;2.07;;;;;;;;;;5033959;28;20445;-68
2023/07/01 09:28:32;;;;;;;56.63;2.47;;;;;;;;;;5034143;28;20444;-68
2023/07/01 09:31:03;;;;;;;56.40;1.90;;;;;;;;;;5034462;28;20515;-68
2023/07/01 09:33:30;;;;;;;56.40;1.80;;;;;;;;;;5034186;28;20451;-68
2023/07/01 09:36:01;;;;;;;56.47;2.20;;;;;;;;;;5033742;28;20492;-68
2023/07/01 09:38:28;;;;;;;56.17;2.10;;;;;;;;;;5033976;28;20453;-68
2023/07/01 09:40:55;;;;;;;56.27;1.90;;;;;;;;;;5033896;28;20453;-68
2023/07/01 09:43:33;;;;;;;56.30;2.10;;;;;;;;;;5034228;28;20449;-68
2023/07/01 09:46:00;;;;;;;56.70;2.20;;;;;;;;;;5033642;28;20512;-68
2023/07/01 09:48:28;;;;;;;56.70;2.13;;;;;;;;;;5033945;28;20456;-67
2023/07/01 09:51:01;;;;;;;56.57;2.03;;;;;;;;;;5033850;28;20448;-68
2023/07/01 09:53:30;;;;;;;56.17;2.00;;;;;;;;;;5033761;28;20813;-68
2023/07/01 09:55:58;;;;;;;56.17;2.00;;;;;;;;;;5033261;28;20994;-68
2023/07/01 09:58:25;;;;;;;56.27;1.97;;;;;;;;;;5033805;28;20828;-68
2023/07/01 10:00:54;;;;;;;56.70;2.10;;;;;;;;;;5033743;28;20471;-68
2023/07/01 10:03:21;;;;;;;56.70;2.30;;;;;;;;;;5033613;28;20457;-68
2023/07/01 10:05:51;;;;;;;56.73;2.23;;;;;;;;;;5033025;28;20868;-68
2023/07/01 10:08:19;;;;;;;57.07;2.30;;;;;;;;;;5033740;28;20810;-68
2023/07/01 10:10:46;;;;;;;56.33;2.20;;;;;;;;;;5033628;28;20450;-68
2023/07/01 10:13:13;;;;;;;56.17;1.90;;;;;;;;;;5033534;28;20453;-68
2023/07/01 10:15:41;;;;;;;56.33;1.93;;;;;;;;;;5033027;28;20453;-68
2023/07/01 10:18:24;;;;;;;56.80;2.00;;;;;;;;;;5033229;28;21031;-68
2023/07/01 10:20:51;;;;;;;56.20;1.87;;;;;;;;;;5033499;28;20453;-68
2023/07/01 10:23:19;;;;;;;58.10;3.33;;;;;;;;;;5033403;28;20449;-68
2023/07/01 10:25:46;;;;;;;56.60;2.27;;;;;;;;;;5032912;28;20803;-68
2023/07/01 10:28:14;;;;;;;55.67;2.00;;;;;;;;;;5033205;28;20453;-68
2023/07/01 10:30:59;;;;;;;56.43;2.10;;;;;;;;;;5032294;28;20450;-68
2023/07/01 10:33:45;;;;;;;56.17;1.73;;;;;;;;;;5033002;28;20457;-68
2023/07/01 10:36:14;;;;;;;55.60;2.10;;;;;;;;;;5032445;28;20477;-68
2023/07/01 10:38:41;;;;;;;56.43;2.33;;;;;;;;;;5032988;28;20980;-68
2023/07/01 10:41:08;;;;;;;55.93;1.60;;;;;;;;;;5032919;28;20453;-69
2023/07/01 10:43:36;;;;;;;56.90;2.33;;;;;;;;;;5032771;28;20850;-68
2023/07/01 10:46:08;;;;;;;55.87;1.80;;;;;;;;;;5032609;28;20484;-67
2023/07/01 10:48:35;;;;;;;56.40;1.70;;;;;;;;;;5032811;28;20452;-68
2023/07/01 10:51:03;;;;;;;56.17;1.70;;;;;;;;;;5032873;28;20449;-68
2023/07/01 10:53:32;;;;;;;56.10;1.77;;;;;;;;;;5032660;28;20449;-68
2023/07/01 10:56:12;;;;;;;56.07;1.60;;;;;;;;;;5032133;28;20473;-68
2023/07/01 10:58:39;;;;;;;56.17;2.40;;;;;;;;;;5032562;28;20457;-69
2023/07/01 11:01:07;;;;;;;56.30;1.67;;;;;;;;;;5032971;28;20452;-68
2023/07/01 11:03:52;;;;;;;56.33;2.07;;;;;;;;;;5032412;28;20460;-68
2023/07/01 11:06:19;;;;;;;55.87;1.80;;;;;;;;;;5031917;28;20547;-68
2023/07/01 11:08:48;;;;;;;55.87;1.90;;;;;;;;;;5032447;28;20460;-69
2023/07/01 11:11:19;;;;;;;55.97;1.70;;;;;;;;;;5032312;28;20947;-68
2023/07/01 11:13:55;;;;;;;55.63;1.70;;;;;;;;;;5032277;28;20460;-68
2023/07/01 11:16:22;;;;;;;55.57;2.00;;;;;;;;;;5031737;28;20469;-68
2023/07/01 11:18:50;;;;;;;55.57;1.70;;;;;;;;;;5032067;28;20453;-68
2023/07/01 11:21:19;;;;;;;56.30;1.80;;;;;;;;;;5032295;28;20802;-68
2023/07/01 11:23:54;;;;;;;56.57;1.90;;;;;;;;;;5032016;28;20964;-68
2023/07/01 11:26:21;;;;;;;56.40;2.00;;;;;;;;;;5031718;28;20852;-68
2023/07/01 11:28:48;;;;;;;55.67;1.70;;;;;;;;;;5031959;28;20456;-68
2023/07/01 11:31:16;;;;;;;55.87;1.70;;;;;;;;;;5031852;28;20453;-68
2023/07/01 11:33:47;;;;;;;56.20;1.90;;;;;;;;;;5031904;28;20457;-68
2023/07/01 11:36:15;;;;;;;55.43;1.60;;;;;;;;;;5031664;28;20794;-68
2023/07/01 11:38:44;;;;;;;56.17;1.93;;;;;;;;;;5032136;28;20453;-68
2023/07/01 11:41:15;;;;;;;55.97;2.10;;;;;;;;;;5031781;28;21006;-68
2023/07/01 11:43:42;;;;;;;55.67;1.73;;;;;;;;;;5031634;28;20457;-69
2023/07/01 11:46:10;;;;;;;55.77;1.70;;;;;;;;;;5031263;28;20469;-68
2023/07/01 11:48:38;;;;;;;56.80;2.10;;;;;;;;;;5031802;28;20445;-69
2023/07/01 11:51:05;;;;;;;55.63;1.90;;;;;;;;;;5031642;28;20444;-68
2023/07/01 11:53:32;;;;;;;55.93;1.90;;;;;;;;;;5031631;28;20448;-68
2023/07/01 11:56:01;;;;;;;56.33;1.80;;;;;;;;;;5031203;28;20837;-68
2023/07/01 11:58:30;;;;;;;56.07;1.73;;;;;;;;;;5031343;28;20493;-68
2023/07/01 12:00:58;;;;;;;56.30;1.80;;;;;;;;;;5031376;28;20452;-68
2023/07/01 12:03:25;;;;;;;56.07;1.60;;;;;;;;;;5031314;28;20908;-68
2023/07/01 12:05:52;;;;;;;55.87;1.80;;;;;;;;;;5031088;28;20580;-68
2023/07/01 12:08:19;;;;;;;55.87;1.50;;;;;;;;;;5031292;28;20490;-68
2023/07/01 12:10:47;;;;;;;55.83;1.87;;;;;;;;;;5031216;28;20452;-68
2023/07/01 12:13:31;;;;;;;56.07;1.80;;;;;;;;;;5031443;28;20488;-68
2023/07/01 12:15:59;;;;;;;55.90;1.77;;;;;;;;;;5030924;28;20469;-68
2023/07/01 12:18:29;;;;;;;56.00;1.80;;;;;;;;;;5031236;28;20562;-68
2023/07/01 12:20:56;;;;;;;56.50;2.10;;;;;;;;;;5031692;28;20489;-68
2023/07/01 12:23:23;;;;;;;55.97;1.60;;;;;;;;;;5031002;28;20492;-69
2023/07/01 12:25:51;;;;;;;56.20;2.20;;;;;;;;;;5030712;28;20953;-68
2023/07/01 12:28:19;;;;;;;56.60;1.90;;;;;;;;;;5031086;28;20960;-68
2023/07/01 12:30:48;;;;;;;56.77;2.00;;;;;;;;;;5031145;28;20445;-68
2023/07/01 12:33:15;;;;;;;56.10;1.60;;;;;;;;;;5031050;28;20449;-68
2023/07/01 12:35:42;;;;;;;55.93;1.60;;;;;;;;;;5030601;28;20449;-68
2023/07/01 12:38:12;;;;;;;56.40;1.60;;;;;;;;;;5031138;28;20852;-68
2023/07/01 12:40:39;;;;;;;56.97;2.00;;;;;;;;;;5030998;28;20453;-68
2023/07/01 12:43:06;;;;;;;56.07;1.70;;;;;;;;;;5031149;28;20828;-68
2023/07/01 12:45:34;;;;;;;56.77;1.83;;;;;;;;;;5030686;28;20449;-68
2023/07/01 12:48:03;;;;;;;55.97;1.70;;;;;;;;;;5031062;28;20453;-68
2023/07/01 12:50:30;;;;;;;56.20;1.67;;;;;;;;;;5030897;28;20450;-68
2023/07/01 12:52:57;;;;;;;56.17;2.10;;;;;;;;;;5030978;28;20449;-68
2023/07/01 12:55:24;;;;;;;57.20;2.07;;;;;;;;;;5034075;28;20455;-68
2023/07/01 12:57:52;;;;;;;56.57;2.00;;;;;;;;;;5035009;28;20489;-68
2023/07/01 13:00:19;;;;;;;55.97;1.80;;;;;;;;;;5034723;28;20510;-68
2023/07/01 13:02:47;;;;;;;56.70;2.00;;;;;;;;;;5034661;28;20460;-68
2023/07/01 13:05:17;;;;;;;56.33;1.80;;;;;;;;;;5034365;28;20449;-68
2023/07/01 13:07:44;;;;;;;56.90;2.00;;;;;;;;;;5034723;28;20469;-68
2023/07/01 13:10:12;;;;;;;56.00;2.03;;;;;;;;;;5034482;28;20469;-68
2023/07/01 13:12:40;;;;;;;56.90;2.00;;;;;;;;;;5034509;28;20448;-68
2023/07/01 13:15:20;;;;;;;56.37;1.80;;;;;;;;;;5034270;28;20480;-69
2023/07/01 13:17:49;;;;;;;56.60;1.80;;;;;;;;;;5034597;28;20488;-68
2023/07/01 13:20:17;;;;;;;56.17;1.90;;;;;;;;;;5034622;28;20459;-68
2023/07/01 13:22:44;;;;;;;56.47;2.20;;;;;;;;;;5034425;28;20448;-69
2023/07/01 13:25:17;;;;;;;56.37;1.90;;;;;;;;;;5034065;28;20453;-69
2023/07/01 13:27:44;;;;;;;56.13;1.90;;;;;;;;;;5034196;28;20476;-69
2023/07/01 13:30:26;;;;;;;56.23;1.70;;;;;;;;;;5034120;28;20449;-68
2023/07/01 13:32:53;;;;;;;56.40;2.10;;;;;;;;;;5034335;28;20547;-69
2023/07/01 13:35:22;;;;;;;56.90;2.10;;;;;;;;;;5033772;28;20536;-69
2023/07/01 13:37:49;;;;;;;56.40;1.87;;;;;;;;;;5033966;28;20493;-69
2023/07/01 13:40:17;;;;;;;56.03;1.70;;;;;;;;;;5034380;28;20452;-68
2023/07/01 13:42:46;;;;;;;56.37;2.03;;;;;;;;;;5033909;28;20449;-68
2023/07/01 13:45:19;;;;;;;57.10;2.67;;;;;;;;;;5033821;28;20481;-69
2023/07/01 13:47:47;;;;;;;56.10;1.60;;;;;;;;;;5033719;28;20465;-68
2023/07/01 13:50:17;;;;;;;56.80;2.03;;;;;;;;;;5033870;28;20479;-69
2023/07/01 13:52:46;;;;;;;56.13;1.80;;;;;;;;;;5033691;28;20449;-69
2023/07/01 13:55:13;;;;;;;56.07;1.80;;;;;;;;;;5033479;28;20972;-69
2023/07/01 13:57:41;;;;;;;56.27;2.00;;;;;;;;;;5033699;28;20543;-66
2023/07/01 14:00:09;;;;;;;55.97;1.70;;;;;;;;;;5033729;28;20445;-66
2023/07/01 14:02:38;;;;;;;56.13;1.80;;;;;;;;;;5034030;28;20808;-69
2023/07/01 14:05:06;;;;;;;56.00;1.70;;;;;;;;;;5032810;28;20455;-68
2023/07/01 14:07:35;;;;;;;56.70;2.10;;;;;;;;;;5032639;28;20465;-68
2023/07/01 14:10:03;;;;;;;56.60;2.07;;;;;;;;;;5033354;28;20471;-69
2023/07/01 14:12:30;;;;;;;57.23;2.67;;;;;;;;;;5033480;28;20452;-69
2023/07/01 14:14:58;;;;;;;56.23;1.80;;;;;;;;;;5033277;28;20449;-69
2023/07/01 14:17:25;;;;;;;56.13;1.80;;;;;;;;;;5033072;28;20530;-67
2023/07/01 14:19:54;;;;;;;56.57;2.30;;;;;;;;;;5033646;28;20445;-67
2023/07/01 14:22:21;;;;;;;55.97;1.90;;;;;;;;;;5033341;28;20503;-67
2023/07/01 14:24:48;;;;;;;56.37;1.77;;;;;;;;;;5033441;28;20821;-67
2023/07/01 14:27:26;;;;;;;56.40;1.80;;;;;;;;;;5032981;28;20492;-67
2023/07/01 14:29:53;;;;;;;56.40;2.00;;;;;;;;;;5033348;28;20557;-67
2023/07/01 14:32:20;;;;;;;56.40;1.90;;;;;;;;;;5033217;28;20529;-67
2023/07/01 14:34:47;;;;;;;56.30;1.90;;;;;;;;;;5033110;28;20446;-66
2023/07/01 14:37:15;;;;;;;56.40;2.00;;;;;;;;;;5032560;28;20465;-67